sensor_id;sensor_type;location;lat;lon;timestamp;P1;durP1;ratioP1;P2;durP2;ratioP2
57848;SDS011;46366;44.758;21.290;2023-03-01T00:01:09;82.78;;;40.30;;
57848;SDS011;46366;44.758;21.290;2023-03-01T00:03:35;88.10;;;41.30;;
57848;SDS011;46366;44.758;21.290;2023-03-01T00:06:01;82.18;;;39.05;;
57848;SDS011;46366;44.758;21.290;2023-03-01T00:08:27;81.15;;;37.83;;
57848;SDS011;46366;44.758;21.290;2023-03-01T00:11:08;91.70;;;42.53;;
57848;SDS011;46366;44.758;21.290;2023-03-01T00:13:35;89.13;;;41.97;;
57848;SDS011;46366;44.758;21.290;2023-03-01T00:16:05;82.43;;;37.90;;
57848;SDS011;46366;44.758;21.290;2023-03-01T00:18:32;84.68;;;39.05;;
57848;SDS011;46366;44.758;21.290;2023-03-01T00:20:58;89.82;;;43.45;;
57848;SDS011;46366;44.758;21.290;2023-03-01T00:23:24;89.43;;;42.70;;
57848;SDS011;46366;44.758;21.290;2023-03-01T00:25:50;88.82;;;42.20;;
57848;SDS011;46366;44.758;21.290;2023-03-01T00:28:17;88.97;;;43.60;;
57848;SDS011;46366;44.758;21.290;2023-03-01T00:30:43;94.63;;;41.20;;
57848;SDS011;46366;44.758;21.290;2023-03-01T00:33:09;80.97;;;38.25;;
57848;SDS011;46366;44.758;21.290;2023-03-01T00:35:35;83.78;;;38.60;;
57848;SDS011;46366;44.758;21.290;2023-03-01T00:38:02;95.80;;;40.58;;
57848;SDS011;46366;44.758;21.290;2023-03-01T00:40:29;89.68;;;38.78;;
57848;SDS011;46366;44.758;21.290;2023-03-01T00:42:55;85.30;;;38.95;;
57848;SDS011;46366;44.758;21.290;2023-03-01T00:45:24;96.53;;;42.05;;
57848;SDS011;46366;44.758;21.290;2023-03-01T00:47:52;85.85;;;38.53;;
57848;SDS011;46366;44.758;21.290;2023-03-01T00:50:18;79.18;;;34.55;;
57848;SDS011;46366;44.758;21.290;2023-03-01T00:52:44;80.15;;;36.95;;
57848;SDS011;46366;44.758;21.290;2023-03-01T00:55:10;83.32;;;38.17;;
57848;SDS011;46366;44.758;21.290;2023-03-01T00:57:36;83.32;;;38.08;;
57848;SDS011;46366;44.758;21.290;2023-03-01T01:00:03;103.85;;;46.95;;
57848;SDS011;46366;44.758;21.290;2023-03-01T01:02:31;87.78;;;39.13;;
57848;SDS011;46366;44.758;21.290;2023-03-01T01:04:57;88.00;;;40.22;;
57848;SDS011;46366;44.758;21.290;2023-03-01T01:07:24;88.05;;;38.20;;
57848;SDS011;46366;44.758;21.290;2023-03-01T01:09:50;92.97;;;40.15;;
57848;SDS011;46366;44.758;21.290;2023-03-01T01:12:19;107.55;;;48.58;;
57848;SDS011;46366;44.758;21.290;2023-03-01T01:14:45;88.05;;;39.03;;
57848;SDS011;46366;44.758;21.290;2023-03-01T01:17:11;89.10;;;40.30;;
57848;SDS011;46366;44.758;21.290;2023-03-01T01:19:37;117.90;;;50.97;;
57848;SDS011;46366;44.758;21.290;2023-03-01T01:22:03;97.95;;;40.65;;
57848;SDS011;46366;44.758;21.290;2023-03-01T01:24:29;84.63;;;38.40;;
57848;SDS011;46366;44.758;21.290;2023-03-01T01:26:55;99.25;;;44.00;;
57848;SDS011;46366;44.758;21.290;2023-03-01T01:29:21;89.55;;;40.67;;
57848;SDS011;46366;44.758;21.290;2023-03-01T01:31:47;94.18;;;40.15;;
57848;SDS011;46366;44.758;21.290;2023-03-01T01:34:22;85.95;;;42.42;;
57848;SDS011;46366;44.758;21.290;2023-03-01T01:36:48;90.30;;;39.53;;
57848;SDS011;46366;44.758;21.290;2023-03-01T01:39:15;86.90;;;40.00;;
57848;SDS011;46366;44.758;21.290;2023-03-01T01:41:41;81.80;;;40.30;;
57848;SDS011;46366;44.758;21.290;2023-03-01T01:44:24;85.03;;;41.28;;
57848;SDS011;46366;44.758;21.290;2023-03-01T01:49:24;89.28;;;42.03;;
57848;SDS011;46366;44.758;21.290;2023-03-01T01:51:51;93.68;;;43.83;;
57848;SDS011;46366;44.758;21.290;2023-03-01T01:54:31;78.25;;;36.58;;
57848;SDS011;46366;44.758;21.290;2023-03-01T01:57:00;88.45;;;40.13;;
57848;SDS011;46366;44.758;21.290;2023-03-01T01:59:27;78.63;;;38.80;;
57848;SDS011;46366;44.758;21.290;2023-03-01T02:01:54;85.85;;;39.50;;
57848;SDS011;46366;44.758;21.290;2023-03-01T02:04:20;87.22;;;39.40;;
57848;SDS011;46366;44.758;21.290;2023-03-01T02:06:52;82.28;;;40.95;;
57848;SDS011;46366;44.758;21.290;2023-03-01T02:09:21;87.00;;;39.67;;
57848;SDS011;46366;44.758;21.290;2023-03-01T02:11:48;76.10;;;37.80;;
57848;SDS011;46366;44.758;21.290;2023-03-01T02:14:16;88.30;;;42.70;;
57848;SDS011;46366;44.758;21.290;2023-03-01T02:16:42;88.65;;;41.75;;
57848;SDS011;46366;44.758;21.290;2023-03-01T02:19:08;80.13;;;37.47;;
57848;SDS011;46366;44.758;21.290;2023-03-01T02:26:57;83.95;;;39.83;;
57848;SDS011;46366;44.758;21.290;2023-03-01T02:29:24;94.18;;;42.20;;
57848;SDS011;46366;44.758;21.290;2023-03-01T02:31:51;95.60;;;45.08;;
57848;SDS011;46366;44.758;21.290;2023-03-01T02:34:19;100.03;;;45.90;;
57848;SDS011;46366;44.758;21.290;2023-03-01T02:36:47;83.25;;;38.85;;
57848;SDS011;46366;44.758;21.290;2023-03-01T02:39:15;86.82;;;40.42;;
57848;SDS011;46366;44.758;21.290;2023-03-01T02:41:43;75.43;;;36.45;;
57848;SDS011;46366;44.758;21.290;2023-03-01T02:44:09;79.72;;;38.22;;
57848;SDS011;46366;44.758;21.290;2023-03-01T02:46:42;96.32;;;44.78;;
57848;SDS011;46366;44.758;21.290;2023-03-01T02:51:54;103.68;;;47.55;;
57848;SDS011;46366;44.758;21.290;2023-03-01T02:54:27;92.15;;;44.40;;
57848;SDS011;46366;44.758;21.290;2023-03-01T02:56:54;81.65;;;40.92;;
57848;SDS011;46366;44.758;21.290;2023-03-01T02:59:22;86.85;;;40.38;;
57848;SDS011;46366;44.758;21.290;2023-03-01T03:01:48;85.50;;;41.90;;
57848;SDS011;46366;44.758;21.290;2023-03-01T03:04:15;78.10;;;38.50;;
57848;SDS011;46366;44.758;21.290;2023-03-01T03:06:42;81.43;;;40.05;;
57848;SDS011;46366;44.758;21.290;2023-03-01T03:09:09;79.45;;;40.67;;
57848;SDS011;46366;44.758;21.290;2023-03-01T03:11:35;86.30;;;43.03;;
57848;SDS011;46366;44.758;21.290;2023-03-01T03:14:01;80.93;;;40.22;;
57848;SDS011;46366;44.758;21.290;2023-03-01T03:16:27;87.07;;;41.47;;
57848;SDS011;46366;44.758;21.290;2023-03-01T03:18:54;76.55;;;39.67;;
57848;SDS011;46366;44.758;21.290;2023-03-01T03:21:29;89.15;;;40.78;;
57848;SDS011;46366;44.758;21.290;2023-03-01T03:23:55;80.93;;;38.08;;
57848;SDS011;46366;44.758;21.290;2023-03-01T03:26:22;82.90;;;42.55;;
57848;SDS011;46366;44.758;21.290;2023-03-01T03:28:48;73.90;;;38.83;;
57848;SDS011;46366;44.758;21.290;2023-03-01T03:31:14;73.95;;;38.83;;
57848;SDS011;46366;44.758;21.290;2023-03-01T03:33:40;86.95;;;41.97;;
57848;SDS011;46366;44.758;21.290;2023-03-01T03:36:06;83.57;;;45.30;;
57848;SDS011;46366;44.758;21.290;2023-03-01T03:38:37;72.38;;;36.47;;
57848;SDS011;46366;44.758;21.290;2023-03-01T03:41:05;85.35;;;41.63;;
57848;SDS011;46366;44.758;21.290;2023-03-01T03:43:32;74.88;;;37.42;;
57848;SDS011;46366;44.758;21.290;2023-03-01T03:45:59;80.85;;;40.10;;
57848;SDS011;46366;44.758;21.290;2023-03-01T03:48:26;84.80;;;41.05;;
57848;SDS011;46366;44.758;21.290;2023-03-01T03:50:53;80.00;;;39.28;;
57848;SDS011;46366;44.758;21.290;2023-03-01T03:53:20;82.90;;;42.75;;
57848;SDS011;46366;44.758;21.290;2023-03-01T03:55:46;72.38;;;36.72;;
57848;SDS011;46366;44.758;21.290;2023-03-01T03:58:14;74.38;;;39.47;;
57848;SDS011;46366;44.758;21.290;2023-03-01T04:00:42;72.97;;;38.17;;
57848;SDS011;46366;44.758;21.290;2023-03-01T04:03:08;72.75;;;35.88;;
57848;SDS011;46366;44.758;21.290;2023-03-01T04:05:35;83.43;;;41.88;;
57848;SDS011;46366;44.758;21.290;2023-03-01T04:08:01;85.13;;;42.03;;
57848;SDS011;46366;44.758;21.290;2023-03-01T04:10:32;73.63;;;38.60;;
57848;SDS011;46366;44.758;21.290;2023-03-01T04:12:58;73.30;;;38.37;;
57848;SDS011;46366;44.758;21.290;2023-03-01T04:15:25;64.88;;;36.35;;
57848;SDS011;46366;44.758;21.290;2023-03-01T04:17:52;86.10;;;44.45;;
57848;SDS011;46366;44.758;21.290;2023-03-01T04:20:19;83.88;;;41.97;;
57848;SDS011;46366;44.758;21.290;2023-03-01T04:22:58;85.55;;;42.53;;
57848;SDS011;46366;44.758;21.290;2023-03-01T04:25:35;71.78;;;37.67;;
57848;SDS011;46366;44.758;21.290;2023-03-01T04:28:01;69.47;;;37.10;;
57848;SDS011;46366;44.758;21.290;2023-03-01T04:30:27;68.65;;;36.63;;
57848;SDS011;46366;44.758;21.290;2023-03-01T04:32:53;75.55;;;39.90;;
57848;SDS011;46366;44.758;21.290;2023-03-01T04:35:19;71.65;;;40.33;;
57848;SDS011;46366;44.758;21.290;2023-03-01T04:37:45;68.05;;;38.90;;
57848;SDS011;46366;44.758;21.290;2023-03-01T04:40:11;71.75;;;40.80;;
57848;SDS011;46366;44.758;21.290;2023-03-01T04:42:40;72.03;;;38.17;;
57848;SDS011;46366;44.758;21.290;2023-03-01T04:45:07;70.90;;;37.60;;
57848;SDS011;46366;44.758;21.290;2023-03-01T04:47:38;58.93;;;34.90;;
57848;SDS011;46366;44.758;21.290;2023-03-01T04:50:04;72.88;;;39.33;;
57848;SDS011;46366;44.758;21.290;2023-03-01T04:52:30;68.47;;;41.22;;
57848;SDS011;46366;44.758;21.290;2023-03-01T04:54:56;72.20;;;38.95;;
57848;SDS011;46366;44.758;21.290;2023-03-01T04:57:22;68.15;;;39.28;;
57848;SDS011;46366;44.758;21.290;2023-03-01T04:59:48;62.60;;;36.25;;
57848;SDS011;46366;44.758;21.290;2023-03-01T05:02:14;56.20;;;31.33;;
57848;SDS011;46366;44.758;21.290;2023-03-01T05:04:40;58.75;;;31.30;;
57848;SDS011;46366;44.758;21.290;2023-03-01T05:07:06;60.40;;;32.65;;
57848;SDS011;46366;44.758;21.290;2023-03-01T05:09:33;64.70;;;33.95;;
57848;SDS011;46366;44.758;21.290;2023-03-01T05:11:59;63.20;;;37.15;;
57848;SDS011;46366;44.758;21.290;2023-03-01T05:14:25;69.78;;;37.78;;
57848;SDS011;46366;44.758;21.290;2023-03-01T05:16:51;58.17;;;33.58;;
57848;SDS011;46366;44.758;21.290;2023-03-01T05:19:17;62.95;;;35.67;;
57848;SDS011;46366;44.758;21.290;2023-03-01T05:21:47;63.70;;;36.50;;
57848;SDS011;46366;44.758;21.290;2023-03-01T05:24:30;64.72;;;36.22;;
57848;SDS011;46366;44.758;21.290;2023-03-01T05:26:56;63.72;;;37.50;;
57848;SDS011;46366;44.758;21.290;2023-03-01T05:29:23;64.45;;;36.58;;
57848;SDS011;46366;44.758;21.290;2023-03-01T05:31:53;64.22;;;36.75;;
57848;SDS011;46366;44.758;21.290;2023-03-01T05:34:22;63.67;;;35.22;;
57848;SDS011;46366;44.758;21.290;2023-03-01T05:36:49;70.53;;;36.05;;
57848;SDS011;46366;44.758;21.290;2023-03-01T05:39:18;58.40;;;33.00;;
57848;SDS011;46366;44.758;21.290;2023-03-01T05:41:44;62.67;;;34.83;;
57848;SDS011;46366;44.758;21.290;2023-03-01T05:44:10;62.40;;;36.25;;
57848;SDS011;46366;44.758;21.290;2023-03-01T05:46:37;57.15;;;32.58;;
57848;SDS011;46366;44.758;21.290;2023-03-01T05:49:03;63.70;;;36.22;;
57848;SDS011;46366;44.758;21.290;2023-03-01T05:51:29;57.15;;;33.60;;
57848;SDS011;46366;44.758;21.290;2023-03-01T05:53:55;60.70;;;34.45;;
57848;SDS011;46366;44.758;21.290;2023-03-01T05:56:21;60.10;;;34.42;;
57848;SDS011;46366;44.758;21.290;2023-03-01T05:58:48;57.65;;;33.53;;
57848;SDS011;46366;44.758;21.290;2023-03-01T06:01:14;57.20;;;33.08;;
57848;SDS011;46366;44.758;21.290;2023-03-01T06:03:40;52.47;;;31.48;;
57848;SDS011;46366;44.758;21.290;2023-03-01T06:06:07;54.17;;;31.08;;
57848;SDS011;46366;44.758;21.290;2023-03-01T06:08:32;56.35;;;33.20;;
57848;SDS011;46366;44.758;21.290;2023-03-01T06:10:58;55.78;;;32.28;;
57848;SDS011;46366;44.758;21.290;2023-03-01T06:13:25;51.75;;;29.65;;
57848;SDS011;46366;44.758;21.290;2023-03-01T06:15:51;55.25;;;33.10;;
57848;SDS011;46366;44.758;21.290;2023-03-01T06:18:17;55.80;;;30.33;;
57848;SDS011;46366;44.758;21.290;2023-03-01T06:20:43;57.45;;;31.30;;
57848;SDS011;46366;44.758;21.290;2023-03-01T06:23:09;56.45;;;33.47;;
57848;SDS011;46366;44.758;21.290;2023-03-01T06:25:35;52.30;;;31.33;;
57848;SDS011;46366;44.758;21.290;2023-03-01T06:28:01;55.97;;;32.67;;
57848;SDS011;46366;44.758;21.290;2023-03-01T06:30:27;50.17;;;32.10;;
57848;SDS011;46366;44.758;21.290;2023-03-01T06:32:53;51.88;;;31.40;;
57848;SDS011;46366;44.758;21.290;2023-03-01T06:35:25;52.50;;;31.63;;
57848;SDS011;46366;44.758;21.290;2023-03-01T06:37:55;52.50;;;31.17;;
57848;SDS011;46366;44.758;21.290;2023-03-01T06:40:21;47.25;;;28.98;;
57848;SDS011;46366;44.758;21.290;2023-03-01T06:42:48;47.70;;;28.42;;
57848;SDS011;46366;44.758;21.290;2023-03-01T06:45:15;51.60;;;31.48;;
57848;SDS011;46366;44.758;21.290;2023-03-01T06:47:41;52.80;;;32.97;;
57848;SDS011;46366;44.758;21.290;2023-03-01T06:50:07;57.35;;;36.50;;
57848;SDS011;46366;44.758;21.290;2023-03-01T06:52:33;52.97;;;32.25;;
57848;SDS011;46366;44.758;21.290;2023-03-01T06:54:59;61.95;;;36.90;;
57848;SDS011;46366;44.758;21.290;2023-03-01T06:57:26;50.17;;;31.88;;
57848;SDS011;46366;44.758;21.290;2023-03-01T06:59:52;61.95;;;35.50;;
57848;SDS011;46366;44.758;21.290;2023-03-01T07:02:18;60.00;;;34.08;;
57848;SDS011;46366;44.758;21.290;2023-03-01T07:04:44;49.08;;;32.50;;
57848;SDS011;46366;44.758;21.290;2023-03-01T07:07:10;52.63;;;31.98;;
57848;SDS011;46366;44.758;21.290;2023-03-01T07:09:36;53.55;;;31.95;;
57848;SDS011;46366;44.758;21.290;2023-03-01T07:12:02;57.92;;;30.75;;
57848;SDS011;46366;44.758;21.290;2023-03-01T07:14:28;49.95;;;31.63;;
57848;SDS011;46366;44.758;21.290;2023-03-01T07:16:54;49.05;;;31.45;;
57848;SDS011;46366;44.758;21.290;2023-03-01T07:19:21;53.63;;;32.90;;
57848;SDS011;46366;44.758;21.290;2023-03-01T07:21:47;49.95;;;32.47;;
57848;SDS011;46366;44.758;21.290;2023-03-01T07:24:14;52.42;;;33.80;;
57848;SDS011;46366;44.758;21.290;2023-03-01T07:26:40;51.30;;;31.63;;
57848;SDS011;46366;44.758;21.290;2023-03-01T07:29:06;50.63;;;30.77;;
57848;SDS011;46366;44.758;21.290;2023-03-01T07:31:33;46.08;;;29.52;;
57848;SDS011;46366;44.758;21.290;2023-03-01T07:33:59;43.83;;;27.45;;
57848;SDS011;46366;44.758;21.290;2023-03-01T07:36:25;47.60;;;30.27;;
57848;SDS011;46366;44.758;21.290;2023-03-01T07:38:51;45.22;;;27.27;;
57848;SDS011;46366;44.758;21.290;2023-03-01T07:41:17;46.67;;;29.30;;
57848;SDS011;46366;44.758;21.290;2023-03-01T07:43:43;42.95;;;26.45;;
57848;SDS011;46366;44.758;21.290;2023-03-01T07:46:09;38.08;;;24.73;;
57848;SDS011;46366;44.758;21.290;2023-03-01T07:48:35;34.97;;;23.75;;
57848;SDS011;46366;44.758;21.290;2023-03-01T07:51:02;36.38;;;23.67;;
57848;SDS011;46366;44.758;21.290;2023-03-01T07:53:28;34.47;;;23.35;;
57848;SDS011;46366;44.758;21.290;2023-03-01T07:58:28;35.53;;;22.38;;
57848;SDS011;46366;44.758;21.290;2023-03-01T08:00:54;30.83;;;20.88;;
57848;SDS011;46366;44.758;21.290;2023-03-01T08:03:20;30.20;;;18.25;;
57848;SDS011;46366;44.758;21.290;2023-03-01T08:05:49;28.58;;;17.70;;
57848;SDS011;46366;44.758;21.290;2023-03-01T08:08:15;30.90;;;18.77;;
57848;SDS011;46366;44.758;21.290;2023-03-01T08:10:41;26.90;;;17.98;;
57848;SDS011;46366;44.758;21.290;2023-03-01T08:13:07;36.95;;;22.20;;
57848;SDS011;46366;44.758;21.290;2023-03-01T08:15:33;27.13;;;16.75;;
57848;SDS011;46366;44.758;21.290;2023-03-01T08:17:59;32.78;;;20.73;;
57848;SDS011;46366;44.758;21.290;2023-03-01T08:20:25;26.48;;;16.58;;
57848;SDS011;46366;44.758;21.290;2023-03-01T08:22:51;26.75;;;16.80;;
57848;SDS011;46366;44.758;21.290;2023-03-01T08:25:17;27.73;;;17.92;;
57848;SDS011;46366;44.758;21.290;2023-03-01T08:27:43;26.13;;;16.42;;
57848;SDS011;46366;44.758;21.290;2023-03-01T08:30:10;24.08;;;16.40;;
57848;SDS011;46366;44.758;21.290;2023-03-01T08:32:39;22.92;;;15.73;;
57848;SDS011;46366;44.758;21.290;2023-03-01T08:35:05;22.73;;;14.55;;
57848;SDS011;46366;44.758;21.290;2023-03-01T08:37:31;24.55;;;14.70;;
57848;SDS011;46366;44.758;21.290;2023-03-01T08:39:58;27.27;;;16.38;;
57848;SDS011;46366;44.758;21.290;2023-03-01T08:42:27;23.17;;;12.70;;
57848;SDS011;46366;44.758;21.290;2023-03-01T08:44:53;21.77;;;13.85;;
57848;SDS011;46366;44.758;21.290;2023-03-01T08:47:19;17.63;;;12.07;;
57848;SDS011;46366;44.758;21.290;2023-03-01T08:49:48;11.77;;;8.32;;
57848;SDS011;46366;44.758;21.290;2023-03-01T08:52:14;15.85;;;8.40;;
57848;SDS011;46366;44.758;21.290;2023-03-01T08:54:41;15.40;;;9.77;;
57848;SDS011;46366;44.758;21.290;2023-03-01T08:57:07;13.15;;;8.55;;
57848;SDS011;46366;44.758;21.290;2023-03-01T08:59:34;14.27;;;8.05;;
57848;SDS011;46366;44.758;21.290;2023-03-01T09:02:03;12.55;;;7.85;;
57848;SDS011;46366;44.758;21.290;2023-03-01T09:04:29;14.43;;;7.05;;
57848;SDS011;46366;44.758;21.290;2023-03-01T09:06:55;10.90;;;6.40;;
57848;SDS011;46366;44.758;21.290;2023-03-01T09:09:21;9.07;;;6.55;;
57848;SDS011;46366;44.758;21.290;2023-03-01T09:11:47;13.43;;;7.38;;
57848;SDS011;46366;44.758;21.290;2023-03-01T09:14:15;10.27;;;6.53;;
57848;SDS011;46366;44.758;21.290;2023-03-01T09:16:41;11.38;;;6.38;;
57848;SDS011;46366;44.758;21.290;2023-03-01T09:19:07;10.90;;;6.28;;
57848;SDS011;46366;44.758;21.290;2023-03-01T09:21:33;10.18;;;6.40;;
57848;SDS011;46366;44.758;21.290;2023-03-01T09:23:59;11.07;;;6.55;;
57848;SDS011;46366;44.758;21.290;2023-03-01T09:26:25;10.15;;;5.25;;
57848;SDS011;46366;44.758;21.290;2023-03-01T09:28:52;8.95;;;5.80;;
57848;SDS011;46366;44.758;21.290;2023-03-01T09:31:19;11.30;;;6.88;;
57848;SDS011;46366;44.758;21.290;2023-03-01T09:33:47;11.02;;;6.65;;
57848;SDS011;46366;44.758;21.290;2023-03-01T09:36:14;10.40;;;6.28;;
57848;SDS011;46366;44.758;21.290;2023-03-01T09:38:40;10.85;;;7.25;;
57848;SDS011;46366;44.758;21.290;2023-03-01T09:41:11;10.52;;;6.70;;
57848;SDS011;46366;44.758;21.290;2023-03-01T09:46:11;12.98;;;7.13;;
57848;SDS011;46366;44.758;21.290;2023-03-01T09:48:48;10.00;;;5.95;;
57848;SDS011;46366;44.758;21.290;2023-03-01T09:51:17;12.80;;;7.25;;
57848;SDS011;46366;44.758;21.290;2023-03-01T09:53:44;13.73;;;8.00;;
57848;SDS011;46366;44.758;21.290;2023-03-01T10:01:41;14.32;;;8.20;;
57848;SDS011;46366;44.758;21.290;2023-03-01T10:06:36;9.32;;;6.82;;
57848;SDS011;46366;44.758;21.290;2023-03-01T10:09:04;11.88;;;6.72;;
57848;SDS011;46366;44.758;21.290;2023-03-01T10:11:32;12.15;;;6.80;;
57848;SDS011;46366;44.758;21.290;2023-03-01T10:14:03;11.43;;;6.85;;
57848;SDS011;46366;44.758;21.290;2023-03-01T10:19:17;18.00;;;10.57;;
57848;SDS011;46366;44.758;21.290;2023-03-01T10:21:46;11.20;;;7.07;;
57848;SDS011;46366;44.758;21.290;2023-03-01T10:24:17;19.35;;;11.15;;
57848;SDS011;46366;44.758;21.290;2023-03-01T10:26:56;13.68;;;8.70;;
57848;SDS011;46366;44.758;21.290;2023-03-01T10:29:45;10.60;;;6.78;;
57848;SDS011;46366;44.758;21.290;2023-03-01T10:32:11;9.80;;;6.68;;
57848;SDS011;46366;44.758;21.290;2023-03-01T10:34:37;20.65;;;13.43;;
57848;SDS011;46366;44.758;21.290;2023-03-01T10:39:32;10.50;;;6.95;;
57848;SDS011;46366;44.758;21.290;2023-03-01T10:44:49;11.77;;;8.02;;
57848;SDS011;46366;44.758;21.290;2023-03-01T10:47:16;11.52;;;7.63;;
57848;SDS011;46366;44.758;21.290;2023-03-01T10:49:56;20.98;;;10.50;;
57848;SDS011;46366;44.758;21.290;2023-03-01T10:52:23;10.38;;;6.72;;
57848;SDS011;46366;44.758;21.290;2023-03-01T10:54:51;11.57;;;6.57;;
57848;SDS011;46366;44.758;21.290;2023-03-01T10:57:37;8.57;;;5.78;;
57848;SDS011;46366;44.758;21.290;2023-03-01T11:00:21;11.60;;;6.60;;
57848;SDS011;46366;44.758;21.290;2023-03-01T11:02:48;16.60;;;9.57;;
57848;SDS011;46366;44.758;21.290;2023-03-01T11:05:22;11.18;;;7.30;;
57848;SDS011;46366;44.758;21.290;2023-03-01T11:10:21;10.85;;;5.72;;
57848;SDS011;46366;44.758;21.290;2023-03-01T11:12:47;8.95;;;6.25;;
57848;SDS011;46366;44.758;21.290;2023-03-01T11:15:20;13.15;;;6.55;;
57848;SDS011;46366;44.758;21.290;2023-03-01T11:17:47;10.27;;;6.75;;
57848;SDS011;46366;44.758;21.290;2023-03-01T11:20:17;13.70;;;6.55;;
57848;SDS011;46366;44.758;21.290;2023-03-01T11:22:53;8.60;;;6.45;;
57848;SDS011;46366;44.758;21.290;2023-03-01T11:25:20;10.65;;;6.75;;
57848;SDS011;46366;44.758;21.290;2023-03-01T11:27:49;11.05;;;6.97;;
57848;SDS011;46366;44.758;21.290;2023-03-01T11:35:29;12.02;;;7.07;;
57848;SDS011;46366;44.758;21.290;2023-03-01T11:43:23;16.98;;;7.18;;
57848;SDS011;46366;44.758;21.290;2023-03-01T11:48:57;19.60;;;10.35;;
57848;SDS011;46366;44.758;21.290;2023-03-01T11:59:28;14.52;;;6.63;;
57848;SDS011;46366;44.758;21.290;2023-03-01T12:07:50;11.65;;;5.85;;
57848;SDS011;46366;44.758;21.290;2023-03-01T12:10:23;11.00;;;7.22;;
57848;SDS011;46366;44.758;21.290;2023-03-01T12:13:02;13.07;;;7.57;;
57848;SDS011;46366;44.758;21.290;2023-03-01T12:15:43;21.88;;;9.60;;
57848;SDS011;46366;44.758;21.290;2023-03-01T12:18:14;15.43;;;8.27;;
57848;SDS011;46366;44.758;21.290;2023-03-01T12:20:45;11.73;;;6.88;;
57848;SDS011;46366;44.758;21.290;2023-03-01T12:25:42;14.88;;;6.75;;
57848;SDS011;46366;44.758;21.290;2023-03-01T12:28:14;11.93;;;6.15;;
57848;SDS011;46366;44.758;21.290;2023-03-01T12:41:08;17.67;;;9.02;;
57848;SDS011;46366;44.758;21.290;2023-03-01T12:51:06;13.75;;;8.02;;
57848;SDS011;46366;44.758;21.290;2023-03-01T12:53:37;19.33;;;8.82;;
57848;SDS011;46366;44.758;21.290;2023-03-01T12:56:12;15.98;;;7.95;;
57848;SDS011;46366;44.758;21.290;2023-03-01T13:07:04;17.70;;;8.68;;
57848;SDS011;46366;44.758;21.290;2023-03-01T13:11:52;16.40;;;8.48;;
57848;SDS011;46366;44.758;21.290;2023-03-01T13:16:48;14.30;;;8.82;;
57848;SDS011;46366;44.758;21.290;2023-03-01T13:19:16;16.58;;;8.88;;
57848;SDS011;46366;44.758;21.290;2023-03-01T13:21:43;37.80;;;23.60;;
57848;SDS011;46366;44.758;21.290;2023-03-01T13:27:21;12.63;;;7.53;;
57848;SDS011;46366;44.758;21.290;2023-03-01T13:34:46;18.80;;;9.95;;
57848;SDS011;46366;44.758;21.290;2023-03-01T13:42:45;23.13;;;9.45;;
57848;SDS011;46366;44.758;21.290;2023-03-01T13:45:25;16.65;;;8.38;;
57848;SDS011;46366;44.758;21.290;2023-03-01T13:47:58;20.15;;;10.20;;
57848;SDS011;46366;44.758;21.290;2023-03-01T13:50:25;18.45;;;10.10;;
57848;SDS011;46366;44.758;21.290;2023-03-01T13:52:57;14.07;;;8.52;;
57848;SDS011;46366;44.758;21.290;2023-03-01T13:58:05;18.65;;;9.48;;
57848;SDS011;46366;44.758;21.290;2023-03-01T14:00:40;17.77;;;10.80;;
57848;SDS011;46366;44.758;21.290;2023-03-01T14:05:39;15.35;;;9.75;;
57848;SDS011;46366;44.758;21.290;2023-03-01T14:08:23;18.17;;;11.43;;
57848;SDS011;46366;44.758;21.290;2023-03-01T14:10:54;19.52;;;10.52;;
57848;SDS011;46366;44.758;21.290;2023-03-01T14:13:24;15.97;;;9.50;;
57848;SDS011;46366;44.758;21.290;2023-03-01T14:16:03;20.38;;;10.27;;
57848;SDS011;46366;44.758;21.290;2023-03-01T14:18:36;21.77;;;10.23;;
57848;SDS011;46366;44.758;21.290;2023-03-01T14:21:08;17.10;;;8.98;;
57848;SDS011;46366;44.758;21.290;2023-03-01T14:23:34;21.58;;;9.32;;
57848;SDS011;46366;44.758;21.290;2023-03-01T14:26:01;15.43;;;10.55;;
57848;SDS011;46366;44.758;21.290;2023-03-01T14:28:29;15.25;;;9.65;;
57848;SDS011;46366;44.758;21.290;2023-03-01T14:30:57;17.08;;;10.20;;
57848;SDS011;46366;44.758;21.290;2023-03-01T14:33:33;18.60;;;9.90;;
57848;SDS011;46366;44.758;21.290;2023-03-01T14:36:05;17.75;;;10.50;;
57848;SDS011;46366;44.758;21.290;2023-03-01T14:38:44;20.02;;;11.57;;
57848;SDS011;46366;44.758;21.290;2023-03-01T14:44:14;20.75;;;11.85;;
57848;SDS011;46366;44.758;21.290;2023-03-01T14:46:34;21.83;;;12.65;;
57848;SDS011;46366;44.758;21.290;2023-03-01T14:49:02;21.50;;;11.98;;
57848;SDS011;46366;44.758;21.290;2023-03-01T14:51:33;19.95;;;11.75;;
57848;SDS011;46366;44.758;21.290;2023-03-01T14:54:00;17.67;;;11.30;;
57848;SDS011;46366;44.758;21.290;2023-03-01T14:56:27;16.95;;;10.57;;
57848;SDS011;46366;44.758;21.290;2023-03-01T14:58:53;18.48;;;11.52;;
57848;SDS011;46366;44.758;21.290;2023-03-01T15:03:50;15.93;;;9.65;;
57848;SDS011;46366;44.758;21.290;2023-03-01T15:06:20;17.02;;;11.38;;
57848;SDS011;46366;44.758;21.290;2023-03-01T15:08:49;17.52;;;10.02;;
57848;SDS011;46366;44.758;21.290;2023-03-01T15:11:17;16.23;;;10.25;;
57848;SDS011;46366;44.758;21.290;2023-03-01T15:13:45;19.50;;;11.20;;
57848;SDS011;46366;44.758;21.290;2023-03-01T15:16:12;17.75;;;11.27;;
57848;SDS011;46366;44.758;21.290;2023-03-01T15:18:46;28.42;;;17.52;;
57848;SDS011;46366;44.758;21.290;2023-03-01T15:21:18;19.38;;;10.82;;
57848;SDS011;46366;44.758;21.290;2023-03-01T15:23:54;27.88;;;14.38;;
57848;SDS011;46366;44.758;21.290;2023-03-01T15:26:25;28.35;;;18.38;;
57848;SDS011;46366;44.758;21.290;2023-03-01T15:28:54;20.63;;;13.50;;
57848;SDS011;46366;44.758;21.290;2023-03-01T15:31:24;27.75;;;11.60;;
57848;SDS011;46366;44.758;21.290;2023-03-01T15:33:50;23.75;;;12.63;;
57848;SDS011;46366;44.758;21.290;2023-03-01T15:36:33;17.77;;;10.07;;
57848;SDS011;46366;44.758;21.290;2023-03-01T15:39:02;39.38;;;24.52;;
57848;SDS011;46366;44.758;21.290;2023-03-01T15:44:03;27.38;;;16.77;;
57848;SDS011;46366;44.758;21.290;2023-03-01T15:46:40;27.35;;;14.15;;
57848;SDS011;46366;44.758;21.290;2023-03-01T15:51:53;24.20;;;13.90;;
57848;SDS011;46366;44.758;21.290;2023-03-01T15:54:21;25.08;;;14.23;;
57848;SDS011;46366;44.758;21.290;2023-03-01T15:56:47;27.00;;;15.32;;
57848;SDS011;46366;44.758;21.290;2023-03-01T15:59:13;29.67;;;17.35;;
57848;SDS011;46366;44.758;21.290;2023-03-01T16:01:40;26.73;;;14.40;;
57848;SDS011;46366;44.758;21.290;2023-03-01T16:04:06;22.98;;;13.45;;
57848;SDS011;46366;44.758;21.290;2023-03-01T16:06:32;21.77;;;13.63;;
57848;SDS011;46366;44.758;21.290;2023-03-01T16:08:58;22.02;;;13.73;;
57848;SDS011;46366;44.758;21.290;2023-03-01T16:11:24;26.73;;;14.05;;
57848;SDS011;46366;44.758;21.290;2023-03-01T16:13:50;26.33;;;13.80;;
57848;SDS011;46366;44.758;21.290;2023-03-01T16:16:16;23.10;;;14.05;;
57848;SDS011;46366;44.758;21.290;2023-03-01T16:18:43;25.40;;;14.55;;
57848;SDS011;46366;44.758;21.290;2023-03-01T16:21:18;34.00;;;14.95;;